createdAt,value
2023-08-28T00:02:13.635Z,3
2023-08-28T00:07:58.282Z,3.1
2023-08-28T00:13:42.571Z,2.6
2023-08-28T00:19:26.845Z,2.5
2023-08-28T00:25:11.660Z,2.9
2023-08-28T00:30:55.990Z,1.7
2023-08-28T00:36:46.218Z,2.1
2023-08-28T00:42:30.506Z,2.3
2023-08-28T00:48:15.300Z,2.4
2023-08-28T00:54:01.252Z,1.3
2023-08-28T00:59:46.015Z,2.9
2023-08-28T01:05:35.435Z,3
2023-08-28T01:11:23.103Z,2.5
2023-08-28T01:17:09.905Z,1.7
2023-08-28T01:22:58.257Z,3.3
2023-08-28T01:28:42.704Z,3.4
2023-08-28T01:34:27.068Z,2.1
2023-08-28T01:40:13.409Z,1.5
2023-08-28T01:45:57.829Z,1.8
2023-08-28T01:51:41.976Z,2.6
2023-08-28T01:57:26.156Z,2
2023-08-28T02:03:11.048Z,1.5
2023-08-28T02:08:55.422Z,2.3
2023-08-28T02:14:39.872Z,2.1
2023-08-28T02:20:24.181Z,4.4
2023-08-28T02:26:08.504Z,2.3
2023-08-28T02:31:52.766Z,1.4
2023-08-28T02:37:37.097Z,1.3
2023-08-28T02:43:21.434Z,2.7
2023-08-28T02:49:05.647Z,1.7
2023-08-28T02:54:49.985Z,1.4
2023-08-28T03:00:34.280Z,1.4
2023-08-28T03:06:18.843Z,2
2023-08-28T03:12:03.266Z,2.7
2023-08-28T03:17:47.686Z,1.2
2023-08-28T03:23:32.190Z,1.3
2023-08-28T03:29:16.573Z,2
2023-08-28T03:35:00.810Z,1.5
2023-08-28T03:40:45.185Z,1.3
2023-08-28T03:46:29.589Z,3
2023-08-28T03:52:14.552Z,2.1
2023-08-28T03:57:59.921Z,2
2023-08-28T04:03:44.536Z,3.3
2023-08-28T04:09:28.821Z,1.8
2023-08-28T04:15:14.302Z,3.8
2023-08-28T04:20:58.678Z,2.7
2023-08-28T04:26:43.206Z,2.5
2023-08-28T04:32:27.675Z,2.8
2023-08-28T04:38:15.980Z,3.2
2023-08-28T04:44:00.355Z,2.4
2023-08-28T04:49:44.646Z,5.3
2023-08-28T04:55:28.945Z,3.3
2023-08-28T05:01:13.410Z,3.6
2023-08-28T05:06:57.822Z,2.5
2023-08-28T05:12:42.277Z,3.9
2023-08-28T05:18:26.694Z,2.6
2023-08-28T05:24:11.510Z,2.6
2023-08-28T05:29:56.106Z,5.1
2023-08-28T05:35:40.285Z,5.4
2023-08-28T05:41:24.519Z,5.2
2023-08-28T05:47:09.750Z,4.2
2023-08-28T05:52:54.066Z,4.2
2023-08-28T05:58:39.639Z,4.2
2023-08-28T06:04:24.802Z,7.1
2023-08-28T06:10:13.937Z,6.4
2023-08-28T06:15:58.235Z,3.9
2023-08-28T06:21:42.361Z,4.5
2023-08-28T06:27:26.562Z,5.1
2023-08-28T06:33:11.424Z,4.6
2023-08-28T06:39:01.003Z,4.6
2023-08-28T06:44:45.167Z,7.9
2023-08-28T06:50:29.626Z,4.9
2023-08-28T06:56:13.946Z,7.9
2023-08-28T07:01:58.250Z,6.3
2023-08-28T07:07:42.449Z,11.7
2023-08-28T07:13:26.688Z,9.7
2023-08-28T07:19:11.202Z,8.7
2023-08-28T07:24:55.520Z,10
2023-08-28T07:30:40.472Z,7.9
2023-08-28T07:36:28.485Z,10.2
2023-08-28T07:42:13.081Z,10.6
2023-08-28T07:47:57.435Z,10.6
2023-08-28T07:53:42.190Z,8.6
2023-08-28T07:59:26.483Z,8.1
2023-08-28T08:05:11.206Z,7.1
2023-08-28T08:10:55.589Z,6.3
2023-08-28T08:16:40.179Z,9.5
2023-08-28T08:22:24.431Z,7
2023-08-28T08:28:08.857Z,6.5
2023-08-28T08:33:52.967Z,5.9
2023-08-28T08:39:41.166Z,5.7
2023-08-28T08:45:28.252Z,5.1
2023-08-28T08:51:12.705Z,5.7
2023-08-28T08:56:58.837Z,3
2023-08-28T09:02:43.748Z,3.6
2023-08-28T09:08:28.738Z,4.4
2023-08-28T09:14:13.005Z,2.2
2023-08-28T09:19:57.363Z,2.2
2023-08-28T09:25:42.358Z,2.7
2023-08-28T09:31:31.345Z,3.4
2023-08-28T09:37:18.488Z,1.5
2023-08-28T09:43:05.573Z,1.1
2023-08-28T09:48:50.198Z,2.3
2023-08-28T09:54:34.690Z,1.8
2023-08-28T10:00:19.635Z,3
2023-08-28T10:06:04.797Z,2
2023-08-28T10:11:49.434Z,1.4
2023-08-28T10:17:37.002Z,2.3
2023-08-28T10:23:21.396Z,2.9
2023-08-28T10:29:06.486Z,1.1
2023-08-28T10:34:50.663Z,1.9
2023-08-28T10:40:35.635Z,1.5
2023-08-28T10:46:21.625Z,1.8
2023-08-28T10:52:09.672Z,2.3
2023-08-28T10:57:55.361Z,1.7
2023-08-28T11:03:46.005Z,3.3
2023-08-28T11:09:40.318Z,2.1
2023-08-28T11:15:28.594Z,2.2
2023-08-28T11:21:13.149Z,1.1
2023-08-28T11:26:57.454Z,1.3
2023-08-28T11:32:42.766Z,1.8
2023-08-28T11:38:28.078Z,1.7
2023-08-28T11:44:15.156Z,1.9
2023-08-28T11:50:00.066Z,1.3
2023-08-28T11:55:44.541Z,2.5
2023-08-28T12:01:29.322Z,0.9
2023-08-28T12:07:29.722Z,3.2
2023-08-28T12:13:13.969Z,1.1
2023-08-28T12:18:58.482Z,1.5
2023-08-28T12:24:47.279Z,1.8
2023-08-28T12:30:31.606Z,2.9
2023-08-28T12:36:16.960Z,1.8
2023-08-28T12:42:01.897Z,3
2023-08-28T12:47:46.141Z,3.2
2023-08-28T12:53:30.812Z,2.9
2023-08-28T12:59:15.059Z,2.6
2023-08-28T13:04:59.350Z,3
2023-08-28T13:10:43.773Z,1.6
2023-08-28T13:16:28.210Z,1.8
2023-08-28T13:22:12.761Z,2.8
2023-08-28T13:27:57.091Z,2.3
2023-08-28T13:33:41.341Z,1.6
2023-08-28T13:39:25.587Z,1.5
2023-08-28T13:45:10.702Z,1.7
2023-08-28T13:50:55.415Z,1.4
2023-08-28T13:56:39.695Z,1.8
2023-08-28T14:02:24.143Z,1.3
2023-08-28T14:08:08.810Z,2.5
2023-08-28T14:13:52.992Z,2.5
2023-08-28T14:19:37.499Z,2.2
2023-08-28T14:25:21.718Z,1.1
2023-08-28T14:31:06.249Z,1.6
2023-08-28T14:36:50.466Z,1.6
2023-08-28T14:42:35.782Z,1.3
2023-08-28T14:48:20.043Z,2.2
2023-08-28T14:54:04.671Z,1.3
2023-08-28T14:59:49.188Z,1.5
2023-08-28T15:05:35.123Z,2.7
2023-08-28T15:11:19.612Z,1.3
2023-08-28T15:17:03.868Z,1.3
2023-08-28T15:22:48.121Z,1.3
2023-08-28T15:28:32.249Z,2.3
2023-08-28T15:34:16.631Z,1.2
2023-08-28T15:40:01.038Z,2.2
2023-08-28T15:45:50.450Z,1.5
2023-08-28T15:51:35.916Z,2.2
2023-08-28T15:57:20.236Z,1.7
2023-08-28T16:03:05.704Z,1.6
2023-08-28T16:08:50.359Z,1
2023-08-28T16:14:34.894Z,1.7
2023-08-28T16:20:20.170Z,2
2023-08-28T16:26:04.487Z,1.2
2023-08-28T16:31:48.939Z,1.8
2023-08-28T16:37:34.492Z,1.6
2023-08-28T16:43:18.994Z,1.7
2023-08-28T16:49:03.503Z,19.6
2023-08-28T16:54:47.817Z,14.9
2023-08-28T17:00:32.326Z,13.8
2023-08-28T17:06:16.586Z,32.9
2023-08-28T17:12:00.887Z,212.8
2023-08-28T17:17:45.495Z,132.7
2023-08-28T17:23:29.718Z,97.3
2023-08-28T17:29:13.970Z,93.3
2023-08-28T17:34:58.688Z,81.3
2023-08-28T17:40:43.869Z,62.7
2023-08-28T17:46:28.227Z,50.3
2023-08-28T17:52:12.626Z,41.2
2023-08-28T17:57:57.252Z,35
2023-08-28T18:03:44.315Z,27.6
2023-08-28T18:09:28.999Z,26
2023-08-28T18:15:14.144Z,21.8
2023-08-28T18:20:58.414Z,21.8
2023-08-28T18:26:42.657Z,20.2
2023-08-28T18:32:26.984Z,20.5
2023-08-28T18:38:11.496Z,19.7
2023-08-28T18:43:55.850Z,8.6
2023-08-28T18:49:40.270Z,8.9
2023-08-28T18:55:34.913Z,8
2023-08-28T19:01:19.327Z,7.4
2023-08-28T19:07:03.744Z,9.7
2023-08-28T19:12:48.164Z,7.6
2023-08-28T19:18:32.404Z,7.5
2023-08-28T19:24:16.753Z,7.8
2023-08-28T19:30:01.018Z,6.3
2023-08-28T19:35:45.595Z,4.2
2023-08-28T19:41:29.846Z,6
2023-08-28T19:47:14.346Z,4.3
2023-08-28T19:52:58.696Z,4.3
2023-08-28T19:58:42.997Z,5
2023-08-28T20:04:27.536Z,4.2
2023-08-28T20:10:12.092Z,7.6
2023-08-28T20:15:58.590Z,6.3
2023-08-28T20:21:43.046Z,4.6
2023-08-28T20:27:27.454Z,5.1
2023-08-28T20:33:12.142Z,4
2023-08-28T20:38:56.467Z,4
2023-08-28T20:44:41.607Z,4.5
2023-08-28T20:50:26.166Z,3.6
2023-08-28T20:56:10.444Z,4.1
2023-08-28T21:01:54.670Z,3.4
2023-08-28T21:07:39.094Z,3.7
2023-08-28T21:13:23.473Z,3.6
2023-08-28T21:19:07.817Z,4.1
2023-08-28T21:24:52.194Z,2.9
2023-08-28T21:30:36.433Z,3.1
2023-08-28T21:36:20.700Z,3.3
2023-08-28T21:42:04.974Z,4
2023-08-28T21:47:49.629Z,2.8
2023-08-28T21:53:34.015Z,2.5
2023-08-28T21:59:18.398Z,3.2
2023-08-28T22:05:02.665Z,2.5
2023-08-28T22:10:47.944Z,2.9
2023-08-28T22:16:32.485Z,3.7
2023-08-28T22:22:16.670Z,2.2
2023-08-28T22:28:01.107Z,2.9
2023-08-28T22:33:45.336Z,1.6
2023-08-28T22:39:29.734Z,2.2
2023-08-28T22:45:14.251Z,2.8
2023-08-28T22:50:58.605Z,2.5
2023-08-28T22:56:43.030Z,2.6
2023-08-28T23:02:27.515Z,3.5
2023-08-28T23:08:11.973Z,2.2
2023-08-28T23:13:56.193Z,2.2
2023-08-28T23:19:40.476Z,2.1
2023-08-28T23:25:24.724Z,2.6
2023-08-28T23:31:11.975Z,2.8
2023-08-28T23:36:56.272Z,1.8
2023-08-28T23:42:40.468Z,3.3
2023-08-28T23:48:25.104Z,2.2
2023-08-28T23:54:09.570Z,2.4
2023-08-28T23:59:53.834Z,2.1
